createdAt,value
2018-12-19T00:00:50.725Z,26.50
2018-12-19T00:01:50.704Z,25.10
2018-12-19T00:02:50.688Z,25.30
2018-12-19T00:03:50.700Z,25.70
2018-12-19T00:04:50.695Z,25.60
2018-12-19T00:05:50.661Z,23.40
2018-12-19T00:06:50.649Z,25.30
2018-12-19T00:07:50.642Z,23.20
2018-12-19T00:08:50.674Z,25.80
2018-12-19T00:09:50.634Z,25.10
2018-12-19T00:10:50.648Z,25.30
2018-12-19T00:11:50.617Z,24.80
2018-12-19T00:12:50.595Z,24.10
2018-12-19T00:13:50.569Z,25.20
2018-12-19T00:14:50.594Z,24.40
2018-12-19T00:15:50.574Z,25.10
2018-12-19T00:16:50.564Z,24.40
2018-12-19T00:17:50.545Z,23.90
2018-12-19T00:18:50.523Z,24.40
2018-12-19T00:19:50.505Z,26.80
2018-12-19T00:20:50.542Z,24.30
2018-12-19T00:21:50.490Z,27.00
2018-12-19T00:22:50.470Z,25.60
2018-12-19T00:23:50.506Z,25.90
2018-12-19T00:24:50.468Z,25.70
2018-12-19T00:25:50.439Z,26.90
2018-12-19T00:26:50.470Z,24.60
2018-12-19T00:27:50.421Z,26.20
2018-12-19T00:28:50.476Z,25.90
2018-12-19T00:29:50.399Z,24.00
2018-12-19T00:30:50.388Z,25.60
2018-12-19T00:31:50.394Z,24.70
2018-12-19T00:32:50.383Z,24.80
2018-12-19T00:33:50.366Z,25.10
2018-12-19T00:34:50.391Z,23.80
2018-12-19T00:35:50.349Z,24.30
2018-12-19T00:36:50.357Z,23.70
2018-12-19T00:37:50.322Z,22.40
2018-12-19T00:38:50.317Z,23.20
2018-12-19T00:39:50.295Z,24.20
2018-12-19T00:40:50.281Z,25.50
2018-12-19T00:41:50.789Z,25.70
2018-12-19T00:42:50.260Z,23.80
2018-12-19T00:43:50.279Z,25.00
2018-12-19T00:44:50.260Z,23.20
2018-12-19T00:45:50.226Z,24.40
2018-12-19T00:46:50.240Z,24.80
2018-12-19T00:47:50.224Z,23.50
2018-12-19T00:48:50.198Z,25.60
2018-12-19T00:49:50.233Z,23.40
2018-12-19T00:50:50.192Z,22.30
2018-12-19T00:51:50.167Z,22.50
2018-12-19T00:52:50.174Z,23.90
2018-12-19T00:53:50.145Z,24.80
2018-12-19T00:54:50.135Z,22.50
2018-12-19T00:55:50.125Z,22.70
2018-12-19T00:56:50.118Z,21.30
2018-12-19T00:57:50.139Z,21.60
2018-12-19T00:58:50.091Z,22.40
2018-12-19T00:59:50.084Z,23.00
2018-12-19T01:00:50.091Z,21.60
2018-12-19T01:01:50.059Z,22.00
2018-12-19T01:02:50.097Z,20.50
2018-12-19T01:03:50.073Z,21.00
2018-12-19T01:04:50.027Z,21.90
2018-12-19T01:05:50.040Z,21.40
2018-12-19T01:06:50.115Z,20.30
2018-12-19T01:07:50.076Z,20.30
2018-12-19T01:08:49.989Z,21.40
2018-12-19T01:09:49.980Z,19.90
2018-12-19T01:10:49.979Z,18.90
2018-12-19T01:11:49.950Z,20.50
2018-12-19T01:12:49.946Z,20.90
2018-12-19T01:13:49.961Z,20.10
2018-12-19T01:14:49.926Z,20.50
2018-12-19T01:15:49.961Z,20.60
2018-12-19T01:16:49.921Z,19.00
2018-12-19T01:17:49.893Z,20.60
2018-12-19T01:18:49.923Z,19.70
2018-12-19T01:19:49.867Z,20.60
2018-12-19T01:20:49.857Z,21.10
2018-12-19T01:21:49.882Z,21.70
2018-12-19T01:22:49.845Z,20.60
2018-12-19T01:23:49.900Z,20.40
2018-12-19T01:24:49.819Z,22.00
2018-12-19T01:25:49.806Z,21.10
2018-12-19T01:26:49.800Z,19.50
2018-12-19T01:27:49.801Z,21.00
2018-12-19T01:28:49.810Z,22.50
2018-12-19T01:29:49.830Z,19.30
2018-12-19T01:30:49.781Z,21.10
2018-12-19T01:31:49.763Z,20.30
2018-12-19T01:32:49.728Z,20.60
2018-12-19T01:33:49.751Z,22.20
2018-12-19T01:34:49.736Z,20.10
2018-12-19T01:35:49.700Z,22.00
2018-12-19T01:36:49.686Z,20.30
2018-12-19T01:37:49.683Z,20.70
2018-12-19T01:38:49.696Z,21.20
2018-12-19T01:39:49.678Z,22.30
2018-12-19T01:40:49.644Z,20.90
2018-12-19T01:41:49.641Z,22.20
2018-12-19T01:42:49.629Z,21.50
2018-12-19T01:43:49.625Z,21.20
2018-12-19T01:44:49.633Z,21.20
2018-12-19T01:45:49.598Z,22.40
2018-12-19T01:46:49.589Z,22.20
2018-12-19T01:47:49.573Z,21.80
2018-12-19T01:48:49.589Z,22.30
2018-12-19T01:49:49.579Z,20.70
2018-12-19T01:50:49.562Z,21.00
2018-12-19T01:51:49.565Z,21.10
2018-12-19T01:52:49.519Z,23.60
2018-12-19T01:53:49.527Z,22.10
2018-12-19T01:54:49.502Z,21.60
2018-12-19T01:55:49.498Z,23.20
2018-12-19T01:56:49.484Z,24.50
2018-12-19T01:57:49.494Z,24.10
2018-12-19T01:58:49.454Z,24.60
2018-12-19T01:59:49.464Z,25.30
2018-12-19T02:00:49.467Z,25.00
2018-12-19T02:01:49.426Z,22.70
2018-12-19T02:02:49.406Z,22.70
2018-12-19T02:03:49.431Z,27.30
2018-12-19T02:04:49.397Z,26.00
2018-12-19T02:05:49.409Z,27.80
2018-12-19T02:06:49.372Z,27.00
2018-12-19T02:07:49.357Z,30.50
2018-12-19T02:08:49.373Z,28.30
2018-12-19T02:09:49.339Z,26.90
2018-12-19T02:10:49.355Z,28.60
2018-12-19T02:11:49.340Z,28.10
2018-12-19T02:12:49.327Z,27.10
2018-12-19T02:13:49.296Z,27.60
2018-12-19T02:14:49.294Z,30.60
2018-12-19T02:15:49.285Z,29.10
2018-12-19T02:16:49.290Z,30.30
2018-12-19T02:17:49.262Z,29.50
2018-12-19T02:18:49.239Z,27.70
2018-12-19T02:19:49.224Z,23.90
2018-12-19T02:20:49.235Z,27.50
2018-12-19T02:21:49.230Z,24.90
2018-12-19T02:22:49.195Z,24.60
2018-12-19T02:23:49.191Z,23.30
2018-12-19T02:24:49.170Z,23.60
2018-12-19T02:25:49.167Z,24.10
2018-12-19T02:26:49.218Z,21.80
2018-12-19T02:27:49.160Z,25.10
2018-12-19T02:28:49.132Z,24.40
2018-12-19T02:29:49.144Z,24.00
2018-12-19T02:30:49.112Z,24.90
2018-12-19T02:31:49.112Z,24.40
2018-12-19T02:32:49.130Z,23.70
2018-12-19T02:33:49.089Z,24.30
2018-12-19T02:34:49.086Z,24.20
2018-12-19T02:35:49.071Z,26.20
2018-12-19T02:36:49.050Z,23.90
2018-12-19T02:37:49.089Z,22.20
2018-12-19T02:38:49.026Z,23.00
2018-12-19T02:39:49.032Z,23.00
2018-12-19T02:40:49.003Z,24.40
2018-12-19T02:41:48.988Z,22.70
2018-12-19T02:42:49.017Z,22.00
2018-12-19T02:43:48.975Z,21.50
2018-12-19T02:44:48.954Z,21.70
2018-12-19T02:45:48.946Z,21.50
2018-12-19T02:46:48.936Z,22.20
2018-12-19T02:47:48.948Z,22.70
2018-12-19T02:48:48.932Z,20.60
2018-12-19T02:49:48.901Z,22.10
2018-12-19T02:50:48.897Z,23.30
2018-12-19T02:51:48.884Z,20.10
2018-12-19T02:52:48.876Z,22.00
2018-12-19T02:53:48.888Z,20.70
2018-12-19T02:54:48.845Z,21.60
2018-12-19T02:55:48.834Z,20.60
2018-12-19T02:56:48.821Z,21.30
2018-12-19T02:57:48.899Z,21.20
2018-12-19T02:58:48.857Z,21.40
2018-12-19T02:59:48.798Z,20.90
2018-12-19T03:00:48.806Z,20.80
2018-12-19T03:01:48.788Z,20.80
2018-12-19T03:02:48.763Z,21.30
2018-12-19T03:03:48.806Z,21.00
2018-12-19T03:04:48.753Z,20.30
2018-12-19T03:05:48.737Z,20.70
2018-12-19T03:06:48.747Z,20.10
2018-12-19T03:07:48.702Z,19.90
2018-12-19T03:08:48.695Z,20.30
2018-12-19T03:09:48.714Z,20.20
2018-12-19T03:10:48.677Z,21.10
2018-12-19T03:11:48.666Z,20.50
2018-12-19T03:12:48.790Z,19.10
2018-12-19T03:13:48.651Z,20.60
2018-12-19T03:14:48.647Z,20.80
2018-12-19T03:15:48.632Z,20.60
2018-12-19T03:16:48.621Z,20.60
2018-12-19T03:17:48.606Z,19.30
2018-12-19T03:18:48.586Z,20.20
2018-12-19T03:19:48.596Z,20.50
2018-12-19T03:20:48.564Z,20.40
2018-12-19T03:21:48.576Z,20.20
2018-12-19T03:22:48.549Z,20.70
2018-12-19T03:23:48.538Z,18.80
2018-12-19T03:24:48.561Z,20.50
2018-12-19T03:25:48.511Z,20.10
2018-12-19T03:26:48.503Z,18.60
2018-12-19T03:27:48.490Z,20.10
2018-12-19T03:28:48.483Z,20.10
2018-12-19T03:29:48.497Z,19.30
2018-12-19T03:30:48.482Z,21.50
2018-12-19T03:31:48.460Z,19.70
2018-12-19T03:32:48.468Z,18.80
2018-12-19T03:33:48.449Z,19.90
2018-12-19T03:34:48.418Z,20.10
2018-12-19T03:35:48.435Z,20.60
2018-12-19T03:36:48.397Z,19.90
2018-12-19T03:37:48.378Z,18.60
2018-12-19T03:38:48.398Z,18.30
2018-12-19T03:39:50.401Z,19.70
2018-12-19T03:40:48.373Z,18.70
2018-12-19T03:41:48.339Z,17.20
2018-12-19T03:42:48.336Z,20.00
2018-12-19T03:43:48.331Z,19.70
2018-12-19T03:44:48.318Z,18.30
2018-12-19T03:45:48.305Z,18.10
2018-12-19T03:46:48.309Z,17.60
2018-12-19T03:47:48.269Z,19.40
2018-12-19T03:48:48.274Z,17.80
2018-12-19T03:49:48.264Z,18.50
2018-12-19T03:50:48.240Z,17.80
2018-12-19T03:51:48.295Z,17.70
2018-12-19T03:52:48.227Z,17.90
2018-12-19T03:53:48.212Z,16.70
2018-12-19T03:54:48.201Z,16.10
2018-12-19T03:55:48.191Z,16.60
2018-12-19T03:56:48.215Z,14.50
2018-12-19T03:57:48.192Z,16.20
2018-12-19T03:58:48.164Z,15.60
2018-12-19T03:59:48.149Z,17.00
2018-12-19T04:00:48.156Z,15.70
2018-12-19T04:01:48.133Z,15.70
2018-12-19T04:02:48.130Z,15.40
2018-12-19T04:03:48.114Z,15.40
2018-12-19T04:04:48.087Z,14.40
2018-12-19T04:05:48.088Z,15.70
2018-12-19T04:06:48.097Z,15.00
2018-12-19T04:07:48.075Z,16.30
2018-12-19T04:08:48.061Z,16.30
2018-12-19T04:09:48.038Z,14.60
2018-12-19T04:10:48.053Z,14.20
2018-12-19T04:11:48.010Z,13.80
2018-12-19T04:12:48.042Z,14.30
2018-12-19T04:13:48.000Z,14.40
2018-12-19T04:14:47.994Z,14.30
2018-12-19T04:15:47.971Z,13.90
2018-12-19T04:16:47.982Z,14.50
2018-12-19T04:17:47.960Z,14.60
2018-12-19T04:18:47.976Z,14.20
2018-12-19T04:19:47.928Z,13.30
2018-12-19T04:20:47.941Z,13.90
2018-12-19T04:21:47.911Z,13.60
2018-12-19T04:22:47.894Z,13.60
2018-12-19T04:23:47.901Z,13.40
2018-12-19T04:24:47.868Z,14.00
2018-12-19T04:25:47.905Z,13.10
2018-12-19T04:26:47.856Z,13.70
2018-12-19T04:27:47.836Z,13.00
2018-12-19T04:28:47.840Z,12.20
2018-12-19T04:29:47.822Z,12.80
2018-12-19T04:30:47.808Z,13.30
2018-12-19T04:31:47.823Z,13.40
2018-12-19T04:32:47.795Z,12.80
2018-12-19T04:33:47.775Z,13.10
2018-12-19T04:34:47.763Z,13.00
2018-12-19T04:35:47.772Z,12.20
2018-12-19T04:36:47.764Z,12.30
2018-12-19T04:37:47.741Z,11.70
2018-12-19T04:38:47.719Z,12.70
2018-12-19T04:39:47.719Z,12.50
2018-12-19T04:40:47.717Z,12.90
2018-12-19T04:41:47.706Z,12.20
2018-12-19T04:42:47.684Z,12.30
2018-12-19T04:43:47.683Z,13.00
2018-12-19T04:44:47.668Z,12.20
2018-12-19T04:45:47.643Z,12.90
2018-12-19T04:46:47.678Z,11.70
2018-12-19T04:47:47.639Z,12.10
2018-12-19T04:48:47.623Z,13.50
2018-12-19T04:49:47.622Z,11.60
2018-12-19T04:50:47.591Z,12.20
2018-12-19T04:51:47.597Z,11.00
2018-12-19T04:52:47.590Z,12.00
2018-12-19T04:53:47.570Z,12.50
2018-12-19T04:54:47.549Z,11.20
2018-12-19T04:55:47.587Z,11.20
2018-12-19T04:56:47.543Z,12.10
2018-12-19T04:57:47.527Z,12.30
2018-12-19T04:58:47.530Z,11.30
2018-12-19T04:59:47.498Z,11.40
2018-12-19T05:00:47.509Z,11.20
2018-12-19T05:01:47.497Z,11.70
2018-12-19T05:02:47.466Z,11.30
2018-12-19T05:03:47.459Z,11.80
2018-12-19T05:04:47.438Z,11.60
2018-12-19T05:05:47.436Z,11.40
2018-12-19T05:06:47.439Z,11.90
2018-12-19T05:07:47.429Z,11.40
2018-12-19T05:08:47.412Z,11.80
2018-12-19T05:09:47.404Z,11.60
2018-12-19T05:10:47.411Z,11.70
2018-12-19T05:11:47.425Z,12.10
2018-12-19T05:12:47.355Z,12.40
2018-12-19T05:13:47.354Z,11.80
2018-12-19T05:14:47.340Z,11.50
2018-12-19T05:15:47.332Z,12.10
2018-12-19T05:16:47.324Z,11.90
2018-12-19T05:17:47.320Z,12.20
2018-12-19T05:18:47.291Z,12.80
2018-12-19T05:19:47.299Z,12.30
2018-12-19T05:20:47.267Z,12.30
2018-12-19T05:21:47.276Z,12.40
2018-12-19T05:22:47.267Z,12.80
2018-12-19T05:23:47.234Z,13.60
2018-12-19T05:24:47.229Z,12.70
2018-12-19T05:25:47.239Z,13.90
2018-12-19T05:26:47.211Z,12.30
2018-12-19T05:27:47.213Z,12.40
2018-12-19T05:28:47.198Z,11.90
2018-12-19T05:29:47.224Z,12.20
2018-12-19T05:30:47.177Z,12.60
2018-12-19T05:31:47.157Z,11.60
2018-12-19T05:32:47.168Z,11.60
2018-12-19T05:33:47.164Z,11.40
2018-12-19T05:34:47.122Z,12.40
2018-12-19T05:35:47.106Z,12.70
2018-12-19T05:36:47.107Z,11.10
2018-12-19T05:37:47.088Z,11.90
2018-12-19T05:38:47.114Z,11.90
2018-12-19T05:39:47.067Z,11.40
2018-12-19T05:40:47.099Z,12.60
2018-12-19T05:41:47.051Z,12.10
2018-12-19T05:42:47.044Z,12.20
2018-12-19T05:43:47.065Z,11.40
2018-12-19T05:44:47.021Z,11.40
2018-12-19T05:45:47.021Z,11.60
2018-12-19T05:46:46.989Z,11.80
2018-12-19T05:47:46.985Z,11.80
2018-12-19T05:48:47.019Z,12.40
2018-12-19T05:49:46.958Z,12.10
2018-12-19T05:50:46.993Z,11.50
2018-12-19T05:51:46.952Z,12.50
2018-12-19T05:52:46.971Z,12.30
2018-12-19T05:53:46.927Z,10.70
2018-12-19T05:54:46.937Z,11.10
2018-12-19T05:55:46.896Z,12.00
2018-12-19T05:56:46.888Z,11.10
2018-12-19T05:57:46.896Z,11.50
2018-12-19T05:58:46.880Z,11.00
2018-12-19T05:59:46.903Z,11.50
2018-12-19T06:00:46.846Z,11.90
2018-12-19T06:01:46.846Z,11.70
2018-12-19T06:02:46.820Z,12.50
2018-12-19T06:03:46.821Z,11.20
2018-12-19T06:04:46.831Z,12.90
2018-12-19T06:05:46.818Z,11.30
2018-12-19T06:06:46.797Z,12.40
2018-12-19T06:07:46.772Z,10.80
2018-12-19T06:08:46.763Z,11.90
2018-12-19T06:09:46.795Z,11.40
2018-12-19T06:10:46.763Z,11.70
2018-12-19T06:11:46.729Z,12.60
2018-12-19T06:12:46.716Z,11.00
2018-12-19T06:13:46.700Z,11.60
2018-12-19T06:14:46.697Z,11.80
2018-12-19T06:15:46.718Z,13.10
2018-12-19T06:16:46.674Z,12.60
2018-12-19T06:17:46.661Z,12.00
2018-12-19T06:18:46.647Z,12.30
2018-12-19T06:19:46.639Z,12.30
2018-12-19T06:20:46.649Z,12.00
2018-12-19T06:21:46.615Z,13.10
2018-12-19T06:22:46.606Z,11.90
2018-12-19T06:23:46.613Z,12.70
2018-12-19T06:24:46.592Z,12.60
2018-12-19T06:25:46.627Z,13.00
2018-12-19T06:26:46.581Z,12.50
2018-12-19T06:27:46.576Z,12.80
2018-12-19T06:28:46.540Z,12.30
2018-12-19T06:29:46.547Z,12.50
2018-12-19T06:30:46.525Z,13.10
2018-12-19T06:31:46.584Z,13.80
2018-12-19T06:32:46.516Z,13.60
2018-12-19T06:33:46.489Z,12.10
2018-12-19T06:34:46.484Z,13.00
2018-12-19T06:35:46.468Z,13.20
2018-12-19T06:36:46.477Z,13.90
2018-12-19T06:37:46.469Z,14.00
2018-12-19T06:38:46.438Z,14.40
2018-12-19T06:39:46.426Z,14.40
2018-12-19T06:40:46.416Z,13.60
2018-12-19T06:41:46.461Z,15.00
2018-12-19T06:42:46.396Z,12.80
2018-12-19T06:43:46.389Z,14.20
2018-12-19T06:44:46.372Z,12.70
2018-12-19T06:45:46.364Z,14.10
2018-12-19T06:46:46.358Z,14.20
2018-12-19T06:47:46.387Z,13.40
2018-12-19T06:48:46.328Z,14.60
2018-12-19T06:49:46.336Z,14.40
2018-12-19T06:50:46.303Z,13.80
2018-12-19T06:51:46.294Z,14.00
2018-12-19T06:52:46.300Z,13.90
2018-12-19T06:53:46.279Z,12.90
2018-12-19T06:54:46.266Z,13.30
2018-12-19T06:55:46.315Z,12.70
2018-12-19T06:56:46.244Z,12.40
2018-12-19T06:57:46.277Z,14.50
2018-12-19T06:58:46.217Z,12.10
2018-12-19T06:59:46.210Z,13.50
2018-12-19T07:00:46.200Z,12.50
2018-12-19T07:01:46.194Z,11.80
2018-12-19T07:02:46.175Z,14.30
2018-12-19T07:03:46.192Z,13.50
2018-12-19T07:04:46.186Z,14.00
2018-12-19T07:05:46.158Z,14.20
2018-12-19T07:06:46.142Z,13.90
2018-12-19T07:07:46.140Z,14.00
2018-12-19T07:08:46.157Z,13.60
2018-12-19T07:09:46.101Z,13.60
2018-12-19T07:10:46.102Z,14.30
2018-12-19T07:11:46.084Z,14.60
2018-12-19T07:12:46.073Z,13.10
2018-12-19T07:13:46.065Z,13.00
2018-12-19T07:14:46.385Z,14.40
2018-12-19T07:15:46.038Z,14.40
2018-12-19T07:16:46.033Z,13.80
2018-12-19T07:17:46.032Z,14.10
2018-12-19T07:18:46.017Z,12.70
2018-12-19T07:19:46.010Z,14.00
2018-12-19T07:20:46.016Z,12.50
2018-12-19T07:21:45.973Z,13.60
2018-12-19T07:22:45.965Z,12.20
2018-12-19T07:23:45.960Z,12.30
2018-12-19T07:24:46.041Z,12.00
2018-12-19T07:25:45.938Z,13.40
2018-12-19T07:26:45.926Z,11.70
2018-12-19T07:27:45.923Z,11.20
2018-12-19T07:28:45.896Z,11.80
2018-12-19T07:29:45.896Z,12.20
2018-12-19T07:30:45.928Z,10.40
2018-12-19T07:31:45.867Z,10.70
2018-12-19T07:32:45.854Z,11.90
2018-12-19T07:33:45.872Z,11.30
2018-12-19T07:34:45.847Z,11.70
2018-12-19T07:35:45.874Z,10.50
2018-12-19T07:36:45.815Z,11.10
2018-12-19T07:37:45.804Z,10.80
2018-12-19T07:38:45.797Z,11.60
2018-12-19T07:39:45.809Z,11.10
2018-12-19T07:40:46.021Z,11.20
2018-12-19T07:41:45.761Z,11.40
2018-12-19T07:42:45.771Z,10.70
2018-12-19T07:43:45.742Z,10.80
2018-12-19T07:44:45.727Z,11.10
2018-12-19T07:45:45.729Z,11.50
2018-12-19T07:46:45.726Z,12.10
2018-12-19T07:47:45.717Z,11.20
2018-12-19T07:48:45.694Z,11.40
2018-12-19T07:49:45.674Z,10.30
2018-12-19T07:50:45.704Z,11.30
2018-12-19T07:51:45.685Z,11.10
2018-12-19T07:52:45.694Z,9.60
2018-12-19T07:53:45.651Z,9.40
2018-12-19T07:54:45.629Z,11.20
2018-12-19T07:55:45.629Z,10.30
2018-12-19T07:56:45.649Z,10.60
2018-12-19T07:57:45.599Z,10.70
2018-12-19T07:58:45.586Z,10.30
2018-12-19T07:59:45.586Z,9.90
2018-12-19T08:00:45.572Z,10.00
2018-12-19T08:01:45.564Z,9.30
2018-12-19T08:02:45.556Z,9.40
2018-12-19T08:03:45.532Z,9.90
2018-12-19T08:04:45.528Z,9.80
2018-12-19T08:05:45.507Z,9.20
2018-12-19T08:06:45.582Z,9.50
2018-12-19T08:07:45.516Z,8.80
2018-12-19T08:08:45.507Z,10.00
2018-12-19T08:09:45.480Z,9.10
2018-12-19T08:10:45.458Z,10.30
2018-12-19T08:11:45.451Z,9.80
2018-12-19T08:12:45.550Z,9.90
2018-12-19T08:13:45.425Z,9.60
2018-12-19T08:14:45.416Z,9.20
2018-12-19T08:15:45.423Z,10.80
2018-12-19T08:16:45.393Z,8.90
2018-12-19T08:17:45.382Z,8.80
2018-12-19T08:18:45.407Z,9.40
2018-12-19T08:19:45.357Z,9.30
2018-12-19T08:20:45.403Z,9.00
2018-12-19T08:21:45.341Z,9.50
2018-12-19T08:22:45.328Z,9.70
2018-12-19T08:23:45.337Z,9.90
2018-12-19T08:24:45.320Z,9.80
2018-12-19T08:25:45.322Z,10.00
2018-12-19T08:26:45.285Z,9.20
2018-12-19T08:27:45.333Z,9.40
2018-12-19T08:28:45.263Z,9.50
2018-12-19T08:29:45.258Z,10.20
2018-12-19T08:30:45.261Z,10.40
2018-12-19T08:31:45.248Z,10.20
2018-12-19T08:32:45.221Z,10.00
2018-12-19T08:33:45.233Z,10.30
2018-12-19T08:34:45.218Z,9.10
2018-12-19T08:35:45.185Z,9.80
2018-12-19T08:36:45.186Z,9.70
2018-12-19T08:37:45.197Z,10.30
2018-12-19T08:38:45.163Z,9.60
2018-12-19T08:39:45.199Z,10.30
2018-12-19T08:40:45.161Z,9.80
2018-12-19T08:41:45.131Z,10.20
2018-12-19T08:42:45.164Z,9.30
2018-12-19T08:43:45.130Z,9.70
2018-12-19T08:44:45.134Z,9.60
2018-12-19T08:45:45.083Z,10.20
2018-12-19T08:46:45.093Z,9.30
2018-12-19T08:47:45.062Z,9.70
2018-12-19T08:48:45.096Z,9.50
2018-12-19T08:49:46.154Z,9.90
2018-12-19T08:50:45.039Z,11.10
2018-12-19T08:51:45.017Z,9.50
2018-12-19T08:52:45.031Z,9.40
2018-12-19T08:53:45.027Z,9.80
2018-12-19T08:56:12.249Z,8.10
2018-12-19T08:57:12.231Z,10.30
2018-12-19T08:58:16.143Z,10.30
2018-12-19T08:59:19.813Z,10.40
2018-12-19T09:00:12.196Z,9.60
2018-12-19T09:01:12.213Z,10.70
2018-12-19T09:02:12.183Z,9.40
2018-12-19T09:03:12.203Z,9.60
2018-12-19T09:04:12.181Z,9.50
2018-12-19T09:05:12.146Z,9.50
2018-12-19T09:06:12.135Z,9.30
2018-12-19T09:07:12.156Z,9.60
2018-12-19T09:08:12.111Z,9.20
2018-12-19T09:09:12.116Z,9.90
2018-12-19T09:10:12.111Z,10.50
2018-12-19T09:11:12.075Z,10.00
2018-12-19T09:12:12.071Z,9.10
2018-12-19T09:13:12.060Z,9.60
2018-12-19T09:14:12.067Z,9.50
2018-12-19T09:15:12.031Z,9.80
2018-12-19T09:16:12.032Z,10.20
2018-12-19T09:17:12.021Z,9.70
2018-12-19T09:18:11.999Z,9.40
2018-12-19T09:19:12.027Z,9.70
2018-12-19T09:20:12.008Z,9.70
2018-12-19T09:21:11.991Z,11.40
2018-12-19T09:22:11.978Z,11.10
2018-12-19T09:23:11.960Z,9.30
2018-12-19T09:24:11.942Z,9.70
2018-12-19T09:25:11.959Z,9.50
2018-12-19T09:26:11.919Z,9.50
2018-12-19T09:27:11.930Z,9.40
2018-12-19T09:28:11.913Z,9.70
2018-12-19T09:29:11.890Z,10.10
2018-12-19T09:30:11.910Z,10.40
2018-12-19T09:31:11.869Z,10.40
2018-12-19T09:32:11.878Z,9.30
2018-12-19T09:33:11.840Z,10.80
2018-12-19T09:34:11.826Z,11.00
2018-12-19T09:35:11.842Z,11.20
2018-12-19T09:36:11.808Z,10.80
2018-12-19T09:37:11.808Z,10.20
2018-12-19T09:38:11.820Z,9.90
2018-12-19T09:39:11.800Z,10.60
2018-12-19T09:40:11.787Z,9.80
2018-12-19T09:41:12.468Z,9.60
2018-12-19T09:42:11.770Z,9.00
2018-12-19T09:43:11.728Z,10.30
2018-12-19T09:44:11.737Z,9.80
2018-12-19T09:45:11.708Z,10.30
2018-12-19T09:46:11.713Z,10.70
2018-12-19T09:47:11.694Z,9.90
2018-12-19T09:48:11.680Z,9.70
2018-12-19T09:49:12.474Z,10.50
2018-12-19T09:50:11.675Z,10.80
2018-12-19T09:51:11.931Z,10.50
2018-12-19T09:52:11.642Z,9.50
2018-12-19T09:53:11.623Z,9.50
2018-12-19T09:54:11.668Z,10.00
2018-12-19T09:55:11.625Z,11.10
2018-12-19T09:56:11.640Z,9.20
2018-12-19T09:57:11.603Z,10.00
2018-12-19T09:58:11.566Z,9.30
2018-12-19T09:59:11.564Z,10.30
2018-12-19T10:00:11.563Z,9.60
2018-12-19T10:01:11.556Z,8.60
2018-12-19T10:02:11.571Z,10.20
2018-12-19T10:03:11.539Z,9.30
2018-12-19T10:04:11.532Z,10.50
2018-12-19T10:05:11.485Z,9.50
2018-12-19T10:06:11.482Z,9.20
2018-12-19T10:07:11.499Z,10.00
2018-12-19T10:08:11.453Z,9.60
2018-12-19T10:09:14.856Z,11.00
2018-12-19T10:10:11.471Z,9.60
2018-12-19T10:11:11.434Z,9.20
2018-12-19T10:12:11.427Z,9.70
2018-12-19T10:13:11.423Z,9.00
2018-12-19T10:14:11.415Z,10.80
2018-12-19T10:15:11.391Z,9.50
2018-12-19T10:16:11.401Z,9.60
2018-12-19T10:17:11.368Z,9.90
2018-12-19T10:18:11.368Z,10.00
2018-12-19T10:19:11.393Z,10.30
2018-12-19T10:20:11.325Z,9.50
2018-12-19T10:21:11.356Z,9.30
2018-12-19T10:22:11.307Z,10.40
2018-12-19T10:23:11.292Z,10.00
2018-12-19T10:24:11.301Z,10.00
2018-12-19T10:25:11.273Z,10.50
2018-12-19T10:26:11.256Z,8.80
2018-12-19T10:27:11.275Z,10.00
2018-12-19T10:28:11.868Z,10.10
2018-12-19T10:29:11.277Z,10.00
2018-12-19T10:30:11.239Z,10.10
2018-12-19T10:31:11.204Z,9.80
2018-12-19T10:32:11.197Z,10.50
2018-12-19T10:33:11.243Z,9.90
2018-12-19T10:34:11.177Z,9.40
2018-12-19T10:35:11.225Z,9.20
2018-12-19T10:36:11.168Z,10.40
2018-12-19T10:37:11.146Z,9.40
2018-12-19T10:38:11.141Z,9.40
2018-12-19T10:39:11.115Z,11.00
2018-12-19T10:40:11.180Z,9.30
2018-12-19T10:41:11.098Z,9.20
2018-12-19T10:42:11.123Z,10.00
2018-12-19T10:43:11.122Z,9.10
2018-12-19T10:44:11.058Z,8.80
2018-12-19T10:45:11.074Z,8.90
2018-12-19T10:46:11.036Z,9.70
2018-12-19T10:47:11.038Z,10.00
2018-12-19T10:48:11.043Z,8.90
2018-12-19T10:49:11.006Z,10.10
2018-12-19T10:50:10.993Z,9.40
2018-12-19T10:51:10.995Z,9.10
2018-12-19T10:52:10.973Z,10.20
2018-12-19T10:53:10.998Z,9.50
2018-12-19T10:55:01.944Z,9.80
2018-12-19T10:56:01.915Z,9.80
2018-12-19T10:57:01.919Z,9.30
2018-12-19T10:58:01.881Z,9.30
2018-12-19T10:59:01.887Z,10.00
2018-12-19T11:00:01.866Z,11.20
2018-12-19T11:01:01.855Z,9.10
2018-12-19T11:02:01.839Z,9.30
2018-12-19T11:03:01.843Z,9.00
2018-12-19T11:04:01.852Z,9.60
2018-12-19T11:05:01.816Z,9.70
2018-12-19T11:06:01.804Z,10.10
2018-12-19T11:07:01.791Z,9.50
2018-12-19T11:08:01.771Z,9.90
2018-12-19T11:09:01.804Z,9.80
2018-12-19T11:10:01.767Z,9.50
2018-12-19T11:11:01.735Z,10.10
2018-12-19T11:12:01.750Z,12.50
2018-12-19T11:13:01.724Z,9.10
2018-12-19T11:14:01.701Z,8.90
2018-12-19T11:15:01.733Z,8.80
2018-12-19T11:16:01.720Z,9.40
2018-12-19T11:17:01.670Z,9.70
2018-12-19T11:18:01.686Z,9.70
2018-12-19T11:19:01.643Z,11.20
2018-12-19T11:20:01.662Z,8.80
2018-12-19T11:21:01.642Z,9.40
2018-12-19T11:22:01.632Z,9.70
2018-12-19T11:23:01.605Z,11.20
2018-12-19T11:24:01.620Z,10.50
2018-12-19T11:25:02.084Z,9.10
2018-12-19T11:26:01.574Z,9.30
2018-12-19T11:27:01.561Z,9.70
2018-12-19T11:28:01.551Z,9.30
2018-12-19T11:29:02.850Z,9.00
2018-12-19T11:30:01.550Z,8.80
2018-12-19T11:31:01.556Z,9.40
2018-12-19T11:32:01.513Z,8.60
2018-12-19T11:33:01.493Z,8.70
2018-12-19T11:34:01.515Z,8.40
2018-12-19T11:35:01.479Z,8.60
2018-12-19T11:36:01.541Z,9.60
2018-12-19T11:37:01.475Z,8.60
2018-12-19T11:38:01.448Z,8.80
2018-12-19T11:39:01.425Z,9.50
2018-12-19T11:40:01.420Z,8.80
2018-12-19T11:41:01.422Z,9.10
2018-12-19T11:42:01.402Z,8.40
2018-12-19T11:43:01.383Z,8.20
2018-12-19T11:44:05.908Z,9.60
2018-12-19T11:45:01.384Z,8.70
2018-12-19T11:46:01.376Z,8.50
2018-12-19T11:47:01.339Z,9.10
2018-12-19T11:48:01.339Z,8.50
2018-12-19T11:49:01.317Z,9.20
2018-12-19T11:50:01.328Z,8.70
2018-12-19T11:51:01.315Z,8.80
2018-12-19T11:52:01.340Z,9.00
2018-12-19T11:53:01.276Z,8.70
2018-12-19T11:54:01.266Z,8.50
2018-12-19T11:55:01.275Z,9.10
2018-12-19T11:56:01.249Z,8.30
2018-12-19T11:57:01.291Z,8.70
2018-12-19T11:58:01.241Z,8.60
2018-12-19T11:59:01.217Z,8.60
2018-12-19T12:00:01.231Z,8.40
2018-12-19T12:01:01.214Z,9.20
2018-12-19T12:02:01.996Z,8.60
2018-12-19T12:03:01.169Z,8.80
2018-12-19T12:04:01.174Z,8.80
2018-12-19T12:05:01.169Z,9.00
2018-12-19T12:06:01.128Z,9.20
2018-12-19T12:07:01.128Z,9.10
2018-12-19T12:08:01.131Z,8.10
2018-12-19T12:09:01.103Z,8.50
2018-12-19T12:10:01.105Z,8.90
2018-12-19T12:11:01.074Z,9.00
2018-12-19T12:12:01.069Z,8.90
2018-12-19T12:13:01.072Z,8.70
2018-12-19T12:14:01.040Z,8.80
2018-12-19T12:15:01.027Z,8.50
2018-12-19T12:16:01.025Z,9.10
2018-12-19T12:17:01.048Z,9.50
2018-12-19T12:18:01.000Z,9.00
2018-12-19T12:19:00.989Z,8.60
2018-12-19T12:20:00.989Z,9.10
2018-12-19T12:21:00.978Z,8.80
2018-12-19T12:22:00.967Z,8.80
2018-12-19T12:23:00.971Z,9.40
2018-12-19T12:24:00.945Z,9.30
2018-12-19T12:25:00.923Z,9.30
2018-12-19T12:26:01.505Z,8.70
2018-12-19T12:27:01.313Z,8.70
2018-12-19T12:28:01.650Z,9.00
2018-12-19T12:29:01.534Z,9.40
2018-12-19T12:30:00.868Z,9.40
2018-12-19T12:31:01.618Z,9.10
2018-12-19T12:33:10.795Z,9.40
2018-12-19T12:34:16.800Z,10.60
2018-12-19T12:35:10.204Z,9.30
2018-12-19T12:36:10.081Z,10.50
2018-12-19T12:37:10.099Z,9.90
2018-12-19T12:38:10.093Z,10.00
2018-12-19T12:39:10.049Z,9.30
2018-12-19T12:40:10.066Z,9.70
2018-12-19T12:41:10.100Z,9.40
2018-12-19T12:42:10.052Z,9.60
2018-12-19T12:43:10.006Z,10.20
2018-12-19T12:44:09.999Z,10.40
2018-12-19T12:45:10.015Z,10.20
2018-12-19T12:46:09.984Z,9.80
2018-12-19T12:47:09.989Z,10.10
2018-12-19T12:48:09.956Z,11.00
2018-12-19T12:49:09.961Z,10.60
2018-12-19T12:50:09.930Z,10.00
2018-12-19T12:51:09.934Z,10.10
2018-12-19T12:52:10.025Z,9.70
2018-12-19T12:53:09.918Z,10.90
2018-12-19T12:54:09.895Z,10.10
2018-12-19T12:55:09.894Z,10.90
2018-12-19T12:56:09.872Z,10.00
2018-12-19T12:57:09.908Z,9.70
2018-12-19T12:58:09.927Z,9.70
2018-12-19T12:59:09.835Z,10.70
2018-12-19T13:00:09.842Z,9.90
2018-12-19T13:01:09.813Z,10.70
2018-12-19T13:02:09.858Z,10.30
2018-12-19T13:03:10.763Z,12.30